Time;durP1;ratioP1;P1;durP2;ratioP2;P2;SDS_P1;SDS_P2;PMS_P1;PMS_P2;Temp;Humidity;BMP_temperature;BMP_pressure;BME280_temperature;BME280_humidity;BME280_pressure;Samples;Min_cycle;Max_cycle;Signal;HPM_P1;HPM_P2
2022/10/14 00:01:25;;;;;;;48.35;21.05;;;12.60;99.90;;;;;;5036262;28;20489;-65
2022/10/14 00:03:53;;;;;;;47.55;22.05;;;12.60;99.90;;;;;;5038219;28;20048;-64
2022/10/14 00:06:25;;;;;;;43.83;21.17;;;12.60;99.90;;;;;;5047638;28;20037;-64
2022/10/14 00:08:51;;;;;;;43.08;21.35;;;12.60;99.90;;;;;;5049495;28;20037;-64
2022/10/14 00:11:23;;;;;;;43.65;21.33;;;12.50;99.90;;;;;;5047104;28;20505;-64
2022/10/14 00:13:49;;;;;;;41.33;21.67;;;12.50;99.90;;;;;;5031202;28;20521;-64
2022/10/14 00:16:23;;;;;;;45.88;21.95;;;12.50;99.90;;;;;;5031165;28;20087;-65
2022/10/14 00:18:49;;;;;;;52.00;21.15;;;12.50;99.90;;;;;;5043232;28;20489;-64
2022/10/14 00:21:16;;;;;;;47.30;21.92;;;12.50;99.90;;;;;;5048335;28;20059;-62
2022/10/14 00:23:42;;;;;;;47.92;22.95;;;12.50;99.90;;;;;;5045695;28;20542;-65
2022/10/14 00:26:25;;;;;;;46.92;23.15;;;12.50;99.90;;;;;;5030774;28;20029;-65
2022/10/14 00:28:51;;;;;;;46.95;23.10;;;12.50;99.90;;;;;;5045076;28;20037;-64
2022/10/14 00:31:17;;;;;;;57.90;22.00;;;12.50;99.90;;;;;;5058321;28;20047;-64
2022/10/14 00:33:43;;;;;;;48.35;22.20;;;12.50;99.90;;;;;;5034196;28;20172;-64
2022/10/14 00:36:12;;;;;;;46.50;22.85;;;12.50;99.90;;;;;;5029511;28;20025;-64
2022/10/14 00:38:37;;;;;;;45.85;22.33;;;12.50;99.90;;;;;;5034925;28;20026;-64
2022/10/14 00:41:04;;;;;;;48.08;22.20;;;12.40;99.90;;;;;;5043977;28;20370;-63
2022/10/14 00:43:54;;;;;;;53.67;21.75;;;12.40;99.90;;;;;;5045847;28;20108;-69
2022/10/14 00:46:20;;;;;;;47.78;21.08;;;12.50;99.90;;;;;;5031863;28;20052;-63
2022/10/14 00:48:46;;;;;;;41.72;21.30;;;12.50;99.90;;;;;;5041927;28;20044;-63
2022/10/14 00:51:12;;;;;;;47.05;20.08;;;12.40;99.90;;;;;;5047811;28;20090;-63
2022/10/14 00:53:41;;;;;;;42.22;20.75;;;12.40;99.90;;;;;;5034465;28;20088;-65
2022/10/14 00:56:09;;;;;;;44.17;19.52;;;12.40;99.90;;;;;;5030411;28;20139;-64
2022/10/14 00:58:35;;;;;;;44.28;19.85;;;12.40;99.90;;;;;;5042240;28;20067;-65
2022/10/14 01:01:01;;;;;;;36.78;17.83;;;12.40;99.90;;;;;;5048721;28;20449;-63
2022/10/14 01:03:26;;;;;;;43.30;20.70;;;12.40;99.90;;;;;;5046012;28;20064;-65
2022/10/14 01:06:39;;;;;;;45.95;19.73;;;12.40;99.90;;;;;;5049801;28;20111;-64
2022/10/14 01:09:17;;;;;;;40.25;18.40;;;12.40;99.90;;;;;;5044632;28;20053;-64
2022/10/14 01:12:17;;;;;;;41.95;20.45;;;12.40;99.90;;;;;;5046980;28;20048;-64
2022/10/14 01:14:58;;;;;;;48.28;20.95;;;12.50;99.90;;;;;;5040275;28;20269;-65
2022/10/14 01:17:26;;;;;;;46.22;19.75;;;12.40;99.90;;;;;;5034301;28;20063;-64
2022/10/14 01:19:58;;;;;;;42.13;20.33;;;12.40;99.90;;;;;;5036367;28;20033;-65
2022/10/14 01:22:40;;;;;;;43.22;20.35;;;12.40;99.90;;;;;;5046569;28;20057;-63
2022/10/14 01:25:23;;;;;;;37.83;18.42;;;12.50;99.90;;;;;;5046008;28;20048;-66
2022/10/14 01:28:32;;;;;;;38.53;19.27;;;12.50;99.90;;;;;;5041013;28;20073;-62
2022/10/14 01:31:05;;;;;;;41.03;19.30;;;12.50;99.90;;;;;;5042954;28;20037;-64
2022/10/14 01:33:36;;;;;;;38.53;19.02;;;12.50;99.90;;;;;;5030631;28;20386;-67
2022/10/14 01:36:14;;;;;;;38.67;18.98;;;12.50;99.90;;;;;;5047353;28;20094;-64
2022/10/14 01:38:53;;;;;;;40.55;19.02;;;12.50;99.90;;;;;;5049204;28;20037;-65
2022/10/14 01:41:23;;;;;;;34.72;17.77;;;12.60;99.90;;;;;;5031760;28;20389;-63
2022/10/14 01:43:50;;;;;;;;;;;12.50;99.90;;;;;;5032805;28;20025;-64
2022/10/14 01:46:18;;;;;;;37.05;18.05;;;12.50;99.90;;;;;;5074320;28;19919;-64
2022/10/14 01:48:49;;;;;;;40.00;18.15;;;12.50;99.90;;;;;;5046419;28;20473;-65
2022/10/14 01:51:22;;;;;;;36.60;17.92;;;12.50;99.90;;;;;;5047471;28;20493;-62
2022/10/14 01:53:58;;;;;;;40.33;18.80;;;12.50;99.90;;;;;;5048388;28;20362;-66
2022/10/14 01:56:28;;;;;;;41.45;19.30;;;12.50;99.90;;;;;;5046221;28;20033;-64
2022/10/14 01:58:55;;;;;;;37.67;18.55;;;12.40;99.90;;;;;;5060116;28;20802;-64
2022/10/14 02:01:20;;;;;;;37.72;17.92;;;12.40;99.90;;;;;;5045366;28;20021;-65
2022/10/14 02:03:47;;;;;;;40.22;18.63;;;12.40;99.90;;;;;;5047620;28;20048;-63
2022/10/14 02:06:28;;;;;;;34.67;16.88;;;12.30;99.90;;;;;;5046520;28;20049;-65
2022/10/14 02:09:01;;;;;;;35.97;17.52;;;12.30;99.90;;;;;;5047601;28;20037;-62
2022/10/14 02:11:39;;;;;;;41.60;17.75;;;12.30;99.90;;;;;;5047916;28;20029;-63
2022/10/14 02:14:34;;;;;;;37.47;16.35;;;12.30;99.90;;;;;;5047945;28;20492;-63
2022/10/14 02:17:07;;;;;;;32.05;16.38;;;12.30;99.90;;;;;;5030929;28;20156;-65
2022/10/14 02:19:52;;;;;;;37.83;17.10;;;12.30;99.90;;;;;;5042513;28;20107;-68
2022/10/14 02:22:34;;;;;;;37.97;16.52;;;12.30;99.90;;;;;;5028864;28;20489;-64
2022/10/14 02:25:23;;;;;;;32.13;15.77;;;12.30;99.90;;;;;;5030019;28;20112;-65
2022/10/14 02:27:51;;;;;;;35.08;15.55;;;12.30;99.90;;;;;;5039778;28;20116;-64
2022/10/14 02:30:18;;;;;;;34.45;15.77;;;12.30;99.90;;;;;;5052229;28;20032;-64
2022/10/14 02:32:45;;;;;;;34.85;17.02;;;12.30;99.90;;;;;;5044102;28;20474;-64
2022/10/14 02:35:16;;;;;;;31.67;16.80;;;12.30;99.90;;;;;;5046581;28;20810;-63
2022/10/14 02:37:44;;;;;;;32.92;16.42;;;12.30;99.90;;;;;;5040834;28;20045;-65
2022/10/14 02:40:25;;;;;;;33.90;15.73;;;12.30;99.90;;;;;;5037672;28;20426;-65
2022/10/14 02:42:51;;;;;;;35.13;16.73;;;12.30;99.90;;;;;;5047527;28;20029;-63
2022/10/14 02:45:17;;;;;;;34.42;16.15;;;12.30;99.90;;;;;;5042236;28;20462;-64
2022/10/14 02:47:43;;;;;;;35.53;16.88;;;12.30;99.90;;;;;;5038674;28;20040;-63
2022/10/14 02:50:09;;;;;;;30.63;15.40;;;12.30;99.90;;;;;;5036297;28;20711;-64
2022/10/14 02:52:35;;;;;;;35.65;16.10;;;12.40;99.90;;;;;;5039577;28;20034;-66
2022/10/14 02:55:00;;;;;;;34.55;16.23;;;12.40;99.90;;;;;;5032832;28;20523;-62
2022/10/14 02:57:26;;;;;;;33.28;15.45;;;12.40;99.90;;;;;;5067836;28;20115;-63
2022/10/14 02:59:52;;;;;;;34.58;16.80;;;12.40;99.90;;;;;;5048206;28;20031;-64
2022/10/14 03:02:17;;;;;;;36.40;17.17;;;12.40;99.90;;;;;;5046275;28;20037;-65
2022/10/14 03:04:43;;;;;;;33.80;16.20;;;12.30;99.90;;;;;;5046033;28;20125;-65
2022/10/14 03:07:08;;;;;;;39.60;17.63;;;12.30;99.90;;;;;;5049925;28;20038;-63
2022/10/14 03:09:34;;;;;;;36.92;17.20;;;12.30;99.90;;;;;;5035829;28;20029;-67
2022/10/14 03:11:59;;;;;;;34.78;16.42;;;12.30;99.90;;;;;;5050619;28;20036;-63
2022/10/14 03:14:25;;;;;;;31.98;17.40;;;12.30;99.90;;;;;;5054433;28;20478;-64
2022/10/14 03:16:51;;;;;;;42.15;18.17;;;12.20;99.90;;;;;;5050107;28;20037;-64
2022/10/14 03:19:16;;;;;;;32.97;16.08;;;12.20;99.90;;;;;;5048936;28;20478;-65
2022/10/14 03:21:42;;;;;;;34.05;16.65;;;12.20;99.90;;;;;;5050976;28;20064;-64
2022/10/14 03:24:08;;;;;;;35.65;16.67;;;12.20;99.90;;;;;;5044821;28;20043;-64
2022/10/14 03:26:34;;;;;;;35.05;17.70;;;12.20;99.90;;;;;;5057413;28;20025;-63
2022/10/14 03:29:00;;;;;;;39.03;17.63;;;12.30;99.90;;;;;;5050988;28;20028;-65
2022/10/14 03:31:26;;;;;;;35.47;17.67;;;12.20;99.90;;;;;;5040049;28;20033;-64
2022/10/14 03:33:52;;;;;;;357.80;24.75;;;12.20;99.90;;;;;;5048409;28;20079;-64
2022/10/14 03:36:17;;;;;;;50.00;17.20;;;12.10;99.90;;;;;;5041984;28;20037;-65
2022/10/14 03:38:43;;;;;;;33.55;15.90;;;12.00;99.90;;;;;;5050737;28;20104;-64
2022/10/14 03:41:08;;;;;;;35.92;17.33;;;12.00;99.90;;;;;;5038107;28;20432;-65
2022/10/14 03:43:34;;;;;;;36.72;17.65;;;12.00;99.90;;;;;;5042921;28;20029;-64
2022/10/14 03:46:00;;;;;;;40.45;17.48;;;12.00;99.90;;;;;;5041615;28;20060;-65
2022/10/14 03:48:25;;;;;;;37.10;17.38;;;12.00;99.90;;;;;;5035746;28;20036;-67
2022/10/14 03:50:51;;;;;;;33.50;16.90;;;12.00;99.90;;;;;;5046542;28;20051;-63
2022/10/14 03:53:16;;;;;;;36.50;16.48;;;12.00;99.90;;;;;;5051502;28;20497;-65
2022/10/14 03:55:42;;;;;;;42.78;17.40;;;12.10;99.90;;;;;;5055922;28;20036;-65
2022/10/14 03:58:09;;;;;;;34.35;16.52;;;12.20;99.90;;;;;;5064843;28;20112;-64
2022/10/14 04:00:35;;;;;;;33.03;15.73;;;12.20;99.90;;;;;;5033703;28;20421;-63
2022/10/14 04:03:00;;;;;;;36.00;15.93;;;12.20;99.90;;;;;;5048948;28;20028;-64
2022/10/14 04:05:32;;;;;;;35.65;15.20;;;12.20;99.90;;;;;;5048055;28;20037;-64
2022/10/14 04:07:58;;;;;;;39.83;16.38;;;12.10;99.90;;;;;;5036098;28;20048;-64
2022/10/14 04:10:24;;;;;;;34.17;15.93;;;12.10;99.90;;;;;;5046886;28;20466;-63
2022/10/14 04:12:50;;;;;;;34.38;15.63;;;12.00;99.90;;;;;;5032491;28;20025;-64
2022/10/14 04:15:16;;;;;;;30.65;14.23;;;12.00;99.90;;;;;;5032171;28;20030;-63
2022/10/14 04:17:41;;;;;;;39.85;15.68;;;12.00;99.90;;;;;;5030993;28;20443;-66
2022/10/14 04:20:07;;;;;;;33.72;15.20;;;12.00;99.90;;;;;;5043050;28;20065;-63
2022/10/14 04:22:33;;;;;;;36.80;15.43;;;12.00;99.90;;;;;;5049703;28;20111;-64
2022/10/14 04:24:59;;;;;;;31.48;15.35;;;12.00;99.90;;;;;;5042941;28;20033;-63
2022/10/14 04:27:24;;;;;;;39.17;14.95;;;12.00;99.90;;;;;;5037541;28;20481;-63
2022/10/14 04:29:51;;;;;;;27.67;14.18;;;12.00;99.90;;;;;;5047579;28;20033;-64
2022/10/14 04:32:17;;;;;;;32.95;15.60;;;12.00;99.90;;;;;;5049505;28;20025;-62
2022/10/14 04:34:43;;;;;;;36.53;15.85;;;12.00;99.90;;;;;;5054842;28;20037;-66
2022/10/14 04:37:09;;;;;;;29.88;14.73;;;12.00;99.90;;;;;;5044822;28;20394;-65
2022/10/14 04:39:34;;;;;;;30.67;15.48;;;12.00;99.90;;;;;;5043940;28;20033;-63
2022/10/14 04:42:00;;;;;;;33.33;15.77;;;12.00;99.90;;;;;;5038422;28;20028;-62
2022/10/14 04:44:26;;;;;;;31.17;14.95;;;12.00;99.90;;;;;;5030415;28;20508;-63
2022/10/14 04:46:51;;;;;;;34.33;15.00;;;12.00;99.90;;;;;;5029544;28;20033;-63
2022/10/14 04:49:17;;;;;;;39.10;15.02;;;12.10;99.90;;;;;;5030483;28;20119;-63
2022/10/14 04:51:42;;;;;;;34.38;14.35;;;12.10;99.90;;;;;;5029414;28;20076;-67
2022/10/14 04:54:09;;;;;;;32.45;14.43;;;12.00;99.90;;;;;;5035528;28;20034;-63
2022/10/14 04:56:35;;;;;;;31.48;14.93;;;12.00;99.90;;;;;;5032695;28;20041;-64
2022/10/14 04:59:00;;;;;;;36.25;15.30;;;12.10;99.90;;;;;;5034294;28;20032;-64
2022/10/14 05:01:26;;;;;;;28.98;14.48;;;12.00;99.90;;;;;;5037221;28;20041;-65
2022/10/14 05:03:52;;;;;;;32.47;14.75;;;12.00;99.90;;;;;;5048020;28;20416;-64
2022/10/14 05:06:17;;;;;;;36.08;14.10;;;11.90;99.90;;;;;;5047429;28;20040;-63
2022/10/14 05:08:43;;;;;;;25.80;13.43;;;11.90;99.90;;;;;;5050092;28;20127;-64
2022/10/14 05:11:09;;;;;;;26.83;14.23;;;11.90;99.90;;;;;;5053569;28;20035;-64
2022/10/14 05:13:35;;;;;;;32.38;13.73;;;11.90;99.90;;;;;;5036647;28;20084;-63
2022/10/14 05:16:02;;;;;;;27.27;13.95;;;11.90;99.90;;;;;;5029457;28;20029;-63
2022/10/14 05:18:27;;;;;;;31.58;13.77;;;11.90;99.90;;;;;;5031171;28;20339;-63
2022/10/14 05:20:53;;;;;;;27.55;13.55;;;11.90;99.90;;;;;;5047114;28;20043;-64
2022/10/14 05:23:19;;;;;;;26.30;13.40;;;12.00;99.90;;;;;;5048997;28;20123;-64
2022/10/14 05:25:45;;;;;;;26.42;12.93;;;12.00;99.90;;;;;;5047993;28;20041;-66
2022/10/14 05:28:10;;;;;;;29.40;14.32;;;12.00;99.90;;;;;;5048364;28;20025;-62
2022/10/14 05:30:36;;;;;;;33.13;14.88;;;12.00;99.90;;;;;;5052928;28;20044;-63
2022/10/14 05:33:01;;;;;;;30.23;15.55;;;12.00;99.90;;;;;;5066505;28;20047;-64
2022/10/14 05:35:27;;;;;;;34.88;16.15;;;12.00;99.90;;;;;;5034664;28;20040;-64
2022/10/14 05:37:55;;;;;;;35.47;15.85;;;12.00;99.90;;;;;;5039185;28;21423;-62
2022/10/14 05:40:21;;;;;;;31.67;15.90;;;12.00;99.90;;;;;;5048924;28;20032;-63
2022/10/14 05:42:46;;;;;;;34.92;16.05;;;12.00;99.90;;;;;;5047611;28;20043;-66
2022/10/14 05:45:12;;;;;;;36.00;16.25;;;12.00;99.90;;;;;;5056058;28;20037;-64
2022/10/14 05:47:38;;;;;;;34.38;16.60;;;12.00;99.90;;;;;;5068360;28;20029;-65
2022/10/14 05:50:04;;;;;;;46.17;18.08;;;12.00;99.90;;;;;;5067456;28;20034;-64
2022/10/14 05:52:31;;;;;;;36.97;16.90;;;12.00;99.90;;;;;;5069408;28;20064;-64
2022/10/14 05:54:57;;;;;;;35.60;17.33;;;12.00;99.90;;;;;;5067225;28;20071;-64
2022/10/14 05:57:23;;;;;;;34.30;16.45;;;12.00;99.90;;;;;;5069458;28;20060;-64
2022/10/14 05:59:48;;;;;;;35.50;16.45;;;12.00;99.90;;;;;;5064984;28;20024;-64
2022/10/14 06:02:14;;;;;;;38.00;16.83;;;12.00;99.90;;;;;;5067060;28;20057;-63
2022/10/14 06:04:41;;;;;;;33.97;16.35;;;12.00;99.90;;;;;;5046330;28;20037;-64
2022/10/14 06:07:09;;;;;;;39.55;17.30;;;12.00;99.90;;;;;;5047822;28;20029;-65
2022/10/14 06:09:35;;;;;;;34.00;17.80;;;12.00;99.90;;;;;;5032068;28;20154;-64
2022/10/14 06:12:01;;;;;;;37.33;16.73;;;12.00;99.90;;;;;;5040424;28;20120;-63
2022/10/14 06:14:26;;;;;;;40.45;17.80;;;12.00;99.90;;;;;;5048096;28;20120;-64
2022/10/14 06:16:52;;;;;;;35.80;17.70;;;12.00;99.90;;;;;;5045280;28;20025;-63
2022/10/14 06:19:18;;;;;;;38.00;17.52;;;12.00;99.90;;;;;;5044271;28;20036;-64
2022/10/14 06:21:43;;;;;;;37.88;17.15;;;12.10;99.90;;;;;;5067542;28;20040;-62
2022/10/14 06:24:10;;;;;;;36.28;17.33;;;12.10;99.90;;;;;;5068243;28;20028;-63
2022/10/14 06:26:35;;;;;;;39.72;17.20;;;12.10;99.90;;;;;;5068830;28;20111;-63
2022/10/14 06:29:01;;;;;;;32.13;16.23;;;12.10;99.90;;;;;;5066838;28;20790;-63
2022/10/14 06:31:27;;;;;;;32.65;15.38;;;12.20;99.90;;;;;;5069042;28;20024;-64
2022/10/14 06:33:52;;;;;;;30.13;15.50;;;12.20;99.90;;;;;;5060124;28;20079;-64
2022/10/14 06:36:18;;;;;;;30.30;14.05;;;12.20;99.90;;;;;;5048880;28;20029;-64
2022/10/14 06:38:44;;;;;;;28.73;14.25;;;12.20;99.90;;;;;;5047964;28;20458;-63
2022/10/14 06:41:09;;;;;;;34.15;14.38;;;12.20;99.90;;;;;;5048124;28;20059;-62
2022/10/14 06:43:35;;;;;;;29.63;14.57;;;12.30;99.90;;;;;;5048304;28;20029;-63
2022/10/14 06:46:03;;;;;;;32.80;15.50;;;12.30;99.90;;;;;;5050113;28;20434;-62
2022/10/14 06:48:29;;;;;;;35.15;15.40;;;12.40;99.90;;;;;;5061260;28;20126;-63
2022/10/14 06:50:58;;;;;;;31.67;14.52;;;12.40;99.90;;;;;;5071559;28;20029;-63
2022/10/14 06:53:23;;;;;;;36.80;14.60;;;12.50;99.90;;;;;;5063332;28;20071;-62
2022/10/14 06:55:55;;;;;;;28.70;13.32;;;12.60;99.90;;;;;;5052206;28;20029;-64
2022/10/14 06:58:21;;;;;;;26.63;12.73;;;12.60;99.90;;;;;;5048424;28;20386;-62
2022/10/14 07:00:46;;;;;;;26.13;12.20;;;12.70;99.90;;;;;;5040843;28;20086;-65
2022/10/14 07:03:12;;;;;;;25.40;12.85;;;12.70;99.90;;;;;;5047456;28;20029;-62
2022/10/14 07:05:37;;;;;;;23.92;12.43;;;12.80;99.90;;;;;;5044291;28;20044;-64
2022/10/14 07:08:03;;;;;;;25.50;12.73;;;12.90;99.90;;;;;;5049827;28;20042;-62
2022/10/14 07:10:29;;;;;;;22.70;12.00;;;13.00;99.90;;;;;;5048970;28;20036;-64
2022/10/14 07:12:55;;;;;;;37.78;12.95;;;13.10;99.90;;;;;;5047618;28;20079;-62
2022/10/14 07:15:20;;;;;;;20.65;11.13;;;13.00;99.90;;;;;;5048576;28;20448;-64
2022/10/14 07:17:46;;;;;;;20.92;11.10;;;13.00;99.90;;;;;;5051450;28;20087;-62
2022/10/14 07:20:12;;;;;;;24.10;9.93;;;13.10;99.90;;;;;;5048009;28;20032;-62
2022/10/14 07:22:37;;;;;;;24.13;11.10;;;13.20;99.90;;;;;;5050589;28;20387;-64
2022/10/14 07:25:04;;;;;;;22.85;11.05;;;13.30;99.90;;;;;;5051004;28;20068;-63
2022/10/14 07:27:30;;;;;;;20.67;10.70;;;13.30;99.90;;;;;;5052906;28;20048;-64
2022/10/14 07:29:55;;;;;;;30.63;13.25;;;13.40;99.90;;;;;;5062789;28;20029;-62
2022/10/14 07:32:21;;;;;;;24.27;12.50;;;13.50;99.90;;;;;;5035020;28;20126;-62
2022/10/14 07:34:47;;;;;;;24.50;11.48;;;13.60;99.90;;;;;;5045860;28;20033;-63
2022/10/14 07:37:12;;;;;;;25.90;12.02;;;13.60;99.90;;;;;;5030663;28;20026;-64
2022/10/14 07:39:38;;;;;;;24.90;11.82;;;13.60;99.90;;;;;;5043886;28;20121;-64
2022/10/14 07:42:04;;;;;;;26.00;12.75;;;13.60;99.90;;;;;;5046672;28;20176;-63
2022/10/14 07:44:30;;;;;;;22.58;12.50;;;13.60;99.90;;;;;;5051390;28;20484;-62
2022/10/14 07:46:57;;;;;;;26.20;12.55;;;13.60;99.90;;;;;;5050871;28;20124;-63
2022/10/14 07:49:23;;;;;;;29.98;11.30;;;13.60;99.90;;;;;;5050458;28;20033;-63
2022/10/14 07:51:49;;;;;;;22.20;11.52;;;13.60;99.90;;;;;;5050991;28;20527;-63
2022/10/14 07:54:21;;;;;;;27.08;12.00;;;13.60;99.90;;;;;;5050164;28;20428;-63
2022/10/14 07:56:50;;;;;;;23.67;11.02;;;13.70;99.90;;;;;;5050204;28;20025;-63
2022/10/14 07:59:17;;;;;;;23.10;10.88;;;13.80;99.90;;;;;;5051580;28;20035;-63
2022/10/14 08:01:46;;;;;;;20.48;10.57;;;13.80;99.90;;;;;;5051146;28;20389;-64
2022/10/14 08:04:11;;;;;;;19.42;10.20;;;14.00;99.90;;;;;;5050354;28;20036;-64
2022/10/14 08:06:37;;;;;;;21.33;11.20;;;14.10;99.90;;;;;;5050840;28;20033;-62
2022/10/14 08:09:04;;;;;;;23.52;11.95;;;14.20;99.90;;;;;;5049310;28;20036;-63
2022/10/14 08:11:30;;;;;;;23.00;11.88;;;14.20;99.90;;;;;;5069758;28;20032;-63
2022/10/14 08:13:57;;;;;;;24.80;12.65;;;14.30;99.90;;;;;;5070149;28;20423;-66
2022/10/14 08:16:28;;;;;;;21.70;11.07;;;14.40;99.90;;;;;;5071428;28;20108;-63
2022/10/14 08:18:56;;;;;;;23.10;10.73;;;14.30;99.90;;;;;;5062721;28;20033;-65
2022/10/14 08:21:22;;;;;;;19.90;11.05;;;14.30;99.90;;;;;;5049108;28;20102;-63
2022/10/14 08:23:48;;;;;;;18.75;10.18;;;14.30;99.90;;;;;;5050626;28;20488;-64
2022/10/14 08:26:29;;;;;;;18.83;9.65;;;14.30;99.90;;;;;;5050051;28;20076;-63
2022/10/14 08:28:55;;;;;;;19.65;9.90;;;14.20;99.90;;;;;;5049362;28;20543;-64
2022/10/14 08:31:21;;;;;;;21.23;11.00;;;14.20;99.90;;;;;;5050664;28;20159;-62
2022/10/14 08:33:48;;;;;;;23.55;11.27;;;14.30;99.90;;;;;;5050761;28;20120;-63
2022/10/14 08:36:14;;;;;;;18.88;10.68;;;14.40;99.90;;;;;;5049956;28;20041;-62
2022/10/14 08:38:40;;;;;;;20.15;10.02;;;14.50;99.90;;;;;;5049952;28;20028;-62
2022/10/14 08:41:14;;;;;;;23.63;10.48;;;14.60;99.90;;;;;;5049772;28;20025;-65
2022/10/14 08:44:32;;;;;;;20.10;10.25;;;14.70;99.90;;;;;;5050310;28;20149;-63
2022/10/14 08:47:01;;;;;;;21.75;10.55;;;14.80;99.90;;;;;;5045072;28;20458;-63
2022/10/14 08:49:26;;;;;;;27.10;11.27;;;14.80;99.90;;;;;;5047453;28;20108;-64
2022/10/14 08:52:08;;;;;;;20.88;9.43;;;15.00;99.90;;;;;;5050471;28;20136;-63
2022/10/14 08:54:39;;;;;;;21.20;9.93;;;15.10;99.90;;;;;;5050242;28;20474;-63
2022/10/14 08:57:10;;;;;;;18.23;9.18;;;15.30;99.90;;;;;;5049507;28;20112;-63
2022/10/14 08:59:40;;;;;;;19.08;9.27;;;15.40;99.90;;;;;;5064039;28;20033;-62
2022/10/14 09:02:21;;;;;;;16.48;8.60;;;15.50;99.90;;;;;;5069373;28;20033;-64
2022/10/14 09:04:47;;;;;;;15.52;8.40;;;15.50;99.90;;;;;;5067295;28;20120;-62
2022/10/14 09:07:17;;;;;;;24.33;9.60;;;15.60;99.90;;;;;;5063047;28;20444;-65
2022/10/14 09:09:48;;;;;;;19.08;9.30;;;15.80;99.90;;;;;;5048803;28;20029;-64
2022/10/14 09:12:19;;;;;;;16.50;9.43;;;16.00;99.90;;;;;;5052213;28;20358;-63
2022/10/14 09:14:56;;;;;;;23.02;9.50;;;16.00;99.90;;;;;;5048234;28;20481;-63
2022/10/14 09:17:34;;;;;;;20.27;9.55;;;16.00;99.90;;;;;;5048098;28;20033;-63
2022/10/14 09:20:15;;;;;;;17.42;7.72;;;16.00;99.90;;;;;;5048904;28;20032;-67
2022/10/14 09:22:41;;;;;;;17.60;8.15;;;15.80;99.90;;;;;;5069779;28;20074;-63
2022/10/14 09:25:14;;;;;;;16.65;7.85;;;15.70;99.90;;;;;;5068906;28;20097;-62
2022/10/14 09:27:40;;;;;;;17.73;8.45;;;15.60;99.90;;;;;;5067331;28;20493;-62
2022/10/14 09:30:13;;;;;;;19.33;9.20;;;15.70;99.90;;;;;;5068986;28;20027;-63
2022/10/14 09:32:44;;;;;;;17.60;7.93;;;15.70;99.90;;;;;;5069630;28;20112;-62
2022/10/14 09:35:24;;;;;;;15.05;8.02;;;15.80;99.90;;;;;;5055341;28;20405;-62
2022/10/14 09:37:50;;;;;;;20.00;9.48;;;15.80;99.90;;;;;;5043790;28;20080;-64
2022/10/14 09:40:19;;;;;;;18.38;8.63;;;15.90;99.90;;;;;;5042802;28;20135;-65
2022/10/14 09:42:58;;;;;;;20.25;9.25;;;16.00;99.90;;;;;;5061226;23;20028;-63
2022/10/14 09:45:26;;;;;;;17.05;8.65;;;16.00;99.90;;;;;;5044012;28;20532;-61
2022/10/14 09:48:02;;;;;;;15.45;8.15;;;16.10;99.90;;;;;;5047781;28;20033;-65
2022/10/14 09:50:45;;;;;;;16.90;9.00;;;16.00;99.90;;;;;;5047782;28;20044;-64
2022/10/14 09:53:30;;;;;;;18.60;7.80;;;15.90;99.90;;;;;;5043605;28;20039;-65
2022/10/14 09:56:02;;;;;;;18.50;9.00;;;16.00;99.90;;;;;;5043083;28;20041;-62
2022/10/14 09:58:32;;;;;;;19.00;8.05;;;16.00;99.90;;;;;;5041578;28;20082;-65
2022/10/14 10:01:00;;;;;;;20.38;8.50;;;16.10;99.90;;;;;;5045836;28;20032;-65
2022/10/14 10:03:27;;;;;;;21.05;8.45;;;16.10;99.90;;;;;;5045249;28;20038;-64
2022/10/14 10:06:06;;;;;;;18.58;7.68;;;16.00;99.90;;;;;;5048256;28;20065;-65
2022/10/14 10:08:35;;;;;;;15.50;7.57;;;15.90;99.90;;;;;;5049015;28;20036;-65
2022/10/14 10:11:10;;;;;;;15.88;7.40;;;15.90;99.90;;;;;;5047925;28;20036;-66
2022/10/14 10:13:44;;;;;;;16.45;7.78;;;15.90;99.90;;;;;;5049159;28;20045;-63
2022/10/14 10:16:25;;;;;;;14.93;7.82;;;16.00;99.90;;;;;;5048650;28;20079;-64
2022/10/14 10:18:54;;;;;;;16.48;7.97;;;16.00;99.90;;;;;;5047832;28;20355;-63
2022/10/14 10:21:29;;;;;;;12.65;6.97;;;15.90;99.90;;;;;;5049602;28;20103;-64
2022/10/14 10:24:02;;;;;;;16.42;7.47;;;15.90;99.90;;;;;;5053139;28;20060;-63
2022/10/14 10:26:32;;;;;;;19.52;8.18;;;15.80;99.90;;;;;;5053008;28;20033;-62
2022/10/14 10:29:01;;;;;;;13.30;7.38;;;15.70;99.90;;;;;;5053070;28;20031;-64
2022/10/14 10:31:46;;;;;;;19.98;7.97;;;15.70;99.90;;;;;;5051966;28;20495;-63
2022/10/14 10:34:36;;;;;;;17.13;7.65;;;15.70;99.90;;;;;;5050461;28;20025;-66
2022/10/14 10:37:12;;;;;;;18.67;7.13;;;15.70;99.90;;;;;;5052706;28;20446;-67
2022/10/14 10:40:13;;;;;;;12.90;7.28;;;15.80;99.90;;;;;;5052746;28;20102;-66
2022/10/14 10:42:39;;;;;;;;;;;15.90;99.90;;;;;;5029232;28;20478;-62
2022/10/14 10:45:25;;;;;;;16.65;7.65;;;16.00;99.90;;;;;;5041275;28;20399;-65
2022/10/14 10:48:14;;;;;;;14.85;7.50;;;16.10;99.90;;;;;;5052853;28;20029;-64
2022/10/14 10:50:42;;;;;;;18.77;7.70;;;16.20;99.90;;;;;;5052113;28;20115;-63
2022/10/14 10:53:17;;;;;;;11.38;6.65;;;16.30;99.90;;;;;;5051640;28;20043;-64
2022/10/14 10:55:55;;;;;;;13.27;7.00;;;16.40;99.90;;;;;;5051475;28;20547;-63
2022/10/14 10:58:20;;;;;;;10.65;6.53;;;16.60;99.90;;;;;;5051725;28;20033;-65
2022/10/14 11:01:30;;;;;;;16.88;7.60;;;16.80;99.90;;;;;;5052911;28;20032;-62
2022/10/14 11:04:27;;;;;;;12.73;6.50;;;17.00;99.90;;;;;;5052046;28;20029;-63
2022/10/14 11:13:04;;;;;;;11.02;5.95;;;17.50;99.90;;;;;;5051044;28;20536;-63
2022/10/14 11:15:48;;;;;;;10.98;5.47;;;17.30;99.90;;;;;;5051486;28;20055;-63
2022/10/14 11:18:47;;;;;;;20.77;7.45;;;17.20;99.90;;;;;;5051323;28;20029;-64
2022/10/14 11:21:28;;;;;;;10.38;5.63;;;17.10;99.90;;;;;;5050893;28;20033;-63
2022/10/14 11:23:58;;;;;;;;;;;17.30;99.90;;;;;;5052918;28;20028;-63
2022/10/14 11:26:45;;;;;;;9.20;5.20;;;17.40;99.90;;;;;;5050709;28;20400;-62
2022/10/14 11:30:05;;;;;;;14.15;6.10;;;17.40;99.90;;;;;;5049853;28;20033;-64
2022/10/14 11:32:39;;;;;;;11.05;5.47;;;17.30;99.90;;;;;;5017732;28;20120;-63
2022/10/14 11:35:39;;;;;;;11.77;6.05;;;17.40;99.90;;;;;;5049104;28;20047;-67
2022/10/14 11:38:28;;;;;;;9.77;5.25;;;17.30;99.90;;;;;;5051596;28;20041;-68
2022/10/14 11:40:54;;;;;;;9.63;5.30;;;17.30;99.90;;;;;;5051406;28;20055;-63
2022/10/14 11:43:28;;;;;;;17.58;5.75;;;17.20;99.90;;;;;;5050577;28;20474;-62
2022/10/14 11:46:11;;;;;;;12.88;5.97;;;17.20;99.90;;;;;;5051757;28;20041;-63
2022/10/14 11:48:51;;;;;;;14.70;6.40;;;17.00;99.90;;;;;;5051511;28;20035;-65
2022/10/14 11:51:26;;;;;;;13.07;6.85;;;17.00;99.90;;;;;;5050884;28;20033;-64
2022/10/14 11:53:52;;;;;;;11.32;6.13;;;17.00;99.90;;;;;;5050764;28;20443;-66
2022/10/14 11:56:54;;;;;;;12.65;6.05;;;16.90;99.90;;;;;;5049704;28;20044;-63
2022/10/14 11:59:36;;;;;;;13.02;6.40;;;16.90;99.90;;;;;;5050639;28;20025;-63
2022/10/14 12:02:29;;;;;;;6.43;3.75;;;16.90;99.90;;;;;;5051138;28;20504;-63
2022/10/14 12:05:20;;;;;;;11.80;4.07;;;16.80;99.90;;;;;;5050297;28;20788;-63
2022/10/14 12:08:08;;;;;;;;;;;16.80;99.90;;;;;;5051879;28;20033;-64
2022/10/14 12:10:41;;;;;;;9.75;3.35;;;16.80;99.90;;;;;;5022227;28;19904;-61
2022/10/14 12:13:18;;;;;;;5.85;3.28;;;16.80;99.90;;;;;;5050922;28;20041;-65
2022/10/14 12:15:49;;;;;;;8.05;3.90;;;16.90;99.90;;;;;;5049224;28;20033;-64
2022/10/14 12:18:14;;;;;;;8.07;3.13;;;16.90;99.90;;;;;;5050413;28;20028;-64
2022/10/14 12:20:40;;;;;;;8.85;3.75;;;16.80;99.90;;;;;;5051029;28;20036;-63
2022/10/14 12:23:09;;;;;;;8.50;3.50;;;16.70;99.90;;;;;;5050994;28;20044;-62
2022/10/14 12:25:47;;;;;;;8.00;3.17;;;16.70;99.90;;;;;;5049944;28;20045;-65
2022/10/14 12:28:17;;;;;;;6.07;3.55;;;16.60;99.90;;;;;;5030127;28;20473;-63
2022/10/14 12:30:43;;;;;;;13.00;3.75;;;16.60;99.90;;;;;;5031035;28;20061;-64
2022/10/14 12:33:11;;;;;;;8.80;3.50;;;16.50;99.90;;;;;;5030568;28;20111;-65
2022/10/14 12:36:05;;;;;;;13.48;3.70;;;16.50;99.90;;;;;;5046902;28;20033;-65
2022/10/14 12:38:34;;;;;;;6.43;3.47;;;16.40;99.90;;;;;;5043506;28;20173;-63
2022/10/14 12:41:33;;;;;;;7.60;3.88;;;16.40;99.90;;;;;;5048037;28;20033;-63
2022/10/14 12:44:13;;;;;;;8.93;3.40;;;16.30;99.90;;;;;;5029393;28;20084;-62
2022/10/14 12:46:44;;;;;;;9.70;4.22;;;16.30;99.90;;;;;;5053400;28;20400;-64
2022/10/14 12:49:24;;;;;;;;;;;16.30;99.90;;;;;;5050220;28;20045;-67
2022/10/14 12:51:55;;;;;;;7.20;3.13;;;16.20;99.90;;;;;;5051407;28;19920;-63
2022/10/14 12:54:21;;;;;;;7.32;3.28;;;16.10;99.90;;;;;;5051707;28;20033;-63
2022/10/14 12:57:01;;;;;;;11.32;4.35;;;16.10;99.90;;;;;;5048705;28;20500;-64
2022/10/14 12:59:36;;;;;;;10.88;3.45;;;16.00;99.90;;;;;;5042442;28;20061;-65